sensor_id;sensor_type;location;lat;lon;timestamp;pressure;altitude;pressure_sealevel;temperature;humidity
32324;BME280;25666;44.350;9.222;2023-03-04T00:00:43;101697.00;;;8.68;100.00
32324;BME280;25666;44.350;9.222;2023-03-04T00:03:10;101698.97;;;8.68;100.00
32324;BME280;25666;44.350;9.222;2023-03-04T00:05:36;101703.56;;;8.72;100.00
32324;BME280;25666;44.350;9.222;2023-03-04T00:08:02;101712.28;;;8.43;100.00
32324;BME280;25666;44.350;9.222;2023-03-04T00:10:28;101709.22;;;8.45;100.00
32324;BME280;25666;44.350;9.222;2023-03-04T00:12:53;101708.06;;;8.46;100.00
32324;BME280;25666;44.350;9.222;2023-03-04T00:15:19;101718.50;;;8.13;100.00
32324;BME280;25666;44.350;9.222;2023-03-04T00:17:44;101716.09;;;8.34;100.00
32324;BME280;25666;44.350;9.222;2023-03-04T00:20:11;101720.81;;;8.47;100.00
32324;BME280;25666;44.350;9.222;2023-03-04T00:22:36;101715.59;;;8.45;100.00
32324;BME280;25666;44.350;9.222;2023-03-04T00:25:02;101724.13;;;8.22;100.00
32324;BME280;25666;44.350;9.222;2023-03-04T00:27:28;101725.44;;;8.24;100.00
32324;BME280;25666;44.350;9.222;2023-03-04T00:29:54;101719.41;;;8.36;100.00
32324;BME280;25666;44.350;9.222;2023-03-04T00:32:20;101717.34;;;8.41;100.00
32324;BME280;25666;44.350;9.222;2023-03-04T00:34:45;101727.69;;;8.49;100.00
32324;BME280;25666;44.350;9.222;2023-03-04T00:37:11;101730.09;;;8.29;100.00
32324;BME280;25666;44.350;9.222;2023-03-04T00:39:36;101732.94;;;8.51;100.00
32324;BME280;25666;44.350;9.222;2023-03-04T00:42:02;101739.03;;;8.61;100.00
32324;BME280;25666;44.350;9.222;2023-03-04T00:44:27;101730.22;;;8.59;100.00
32324;BME280;25666;44.350;9.222;2023-03-04T00:46:53;101722.03;;;8.54;100.00
32324;BME280;25666;44.350;9.222;2023-03-04T00:49:18;101735.28;;;8.57;100.00
32324;BME280;25666;44.350;9.222;2023-03-04T00:51:44;101727.47;;;8.46;100.00
32324;BME280;25666;44.350;9.222;2023-03-04T00:54:09;101724.34;;;8.39;100.00
32324;BME280;25666;44.350;9.222;2023-03-04T00:56:35;101723.31;;;8.35;100.00
32324;BME280;25666;44.350;9.222;2023-03-04T00:59:00;101723.19;;;8.26;100.00
32324;BME280;25666;44.350;9.222;2023-03-04T01:01:26;101720.72;;;8.25;100.00
32324;BME280;25666;44.350;9.222;2023-03-04T01:03:51;101720.81;;;8.33;100.00
32324;BME280;25666;44.350;9.222;2023-03-04T01:06:17;101724.22;;;8.44;100.00
32324;BME280;25666;44.350;9.222;2023-03-04T01:08:43;101715.75;;;8.49;100.00
32324;BME280;25666;44.350;9.222;2023-03-04T01:11:08;101716.16;;;8.56;100.00
32324;BME280;25666;44.350;9.222;2023-03-04T01:13:34;101712.94;;;8.63;100.00
32324;BME280;25666;44.350;9.222;2023-03-04T01:15:59;101710.38;;;8.66;100.00
32324;BME280;25666;44.350;9.222;2023-03-04T01:18:26;101711.28;;;8.61;100.00
32324;BME280;25666;44.350;9.222;2023-03-04T01:20:52;101702.44;;;8.37;100.00
32324;BME280;25666;44.350;9.222;2023-03-04T01:23:17;101708.31;;;8.36;100.00
32324;BME280;25666;44.350;9.222;2023-03-04T01:25:42;101696.34;;;8.49;100.00
32324;BME280;25666;44.350;9.222;2023-03-04T01:28:08;101700.09;;;8.67;100.00
32324;BME280;25666;44.350;9.222;2023-03-04T01:30:33;101689.22;;;8.56;100.00
32324;BME280;25666;44.350;9.222;2023-03-04T01:32:59;101683.38;;;8.58;100.00
32324;BME280;25666;44.350;9.222;2023-03-04T01:35:24;101680.22;;;8.73;100.00
32324;BME280;25666;44.350;9.222;2023-03-04T01:37:50;101679.34;;;8.86;100.00
32324;BME280;25666;44.350;9.222;2023-03-04T01:40:16;101675.13;;;8.89;100.00
32324;BME280;25666;44.350;9.222;2023-03-04T01:42:42;101674.22;;;8.57;100.00
32324;BME280;25666;44.350;9.222;2023-03-04T01:45:13;101673.16;;;8.67;100.00
32324;BME280;25666;44.350;9.222;2023-03-04T01:47:40;101677.72;;;8.49;100.00
32324;BME280;25666;44.350;9.222;2023-03-04T01:50:33;101671.03;;;8.64;100.00
32324;BME280;25666;44.350;9.222;2023-03-04T01:53:01;101680.41;;;8.54;100.00
32324;BME280;25666;44.350;9.222;2023-03-04T01:55:27;101663.78;;;8.77;100.00
32324;BME280;25666;44.350;9.222;2023-03-04T01:57:54;101666.47;;;8.68;100.00
32324;BME280;25666;44.350;9.222;2023-03-04T02:00:31;101672.34;;;8.89;100.00
32324;BME280;25666;44.350;9.222;2023-03-04T02:03:01;101671.72;;;8.92;100.00
32324;BME280;25666;44.350;9.222;2023-03-04T02:05:29;101663.38;;;8.70;100.00
32324;BME280;25666;44.350;9.222;2023-03-04T02:07:56;101668.50;;;8.76;100.00
32324;BME280;25666;44.350;9.222;2023-03-04T02:10:23;101659.97;;;8.73;100.00
32324;BME280;25666;44.350;9.222;2023-03-04T02:12:49;101663.13;;;8.80;100.00
32324;BME280;25666;44.350;9.222;2023-03-04T02:15:15;101660.28;;;8.71;100.00
32324;BME280;25666;44.350;9.222;2023-03-04T02:17:41;101660.72;;;8.87;100.00
32324;BME280;25666;44.350;9.222;2023-03-04T02:22:47;101655.44;;;8.77;100.00
32324;BME280;25666;44.350;9.222;2023-03-04T02:25:21;101666.34;;;8.51;100.00
32324;BME280;25666;44.350;9.222;2023-03-04T02:27:48;101662.81;;;8.81;100.00
32324;BME280;25666;44.350;9.222;2023-03-04T02:30:15;101664.94;;;8.84;100.00
32324;BME280;25666;44.350;9.222;2023-03-04T02:32:41;101650.56;;;8.82;100.00
32324;BME280;25666;44.350;9.222;2023-03-04T02:35:13;101658.94;;;8.91;100.00
32324;BME280;25666;44.350;9.222;2023-03-04T02:37:41;101647.66;;;8.87;100.00
32324;BME280;25666;44.350;9.222;2023-03-04T02:40:13;101648.34;;;8.93;100.00
32324;BME280;25666;44.350;9.222;2023-03-04T02:42:42;101665.66;;;8.68;100.00
32324;BME280;25666;44.350;9.222;2023-03-04T02:48:07;101658.19;;;8.99;100.00
32324;BME280;25666;44.350;9.222;2023-03-04T02:50:36;101642.00;;;8.92;100.00
32324;BME280;25666;44.350;9.222;2023-03-04T02:53:03;101654.44;;;8.73;100.00
32324;BME280;25666;44.350;9.222;2023-03-04T02:55:28;101653.94;;;8.71;100.00
32324;BME280;25666;44.350;9.222;2023-03-04T02:57:54;101655.63;;;8.58;100.00
32324;BME280;25666;44.350;9.222;2023-03-04T03:00:20;101650.44;;;8.65;100.00
32324;BME280;25666;44.350;9.222;2023-03-04T03:02:47;101641.56;;;8.77;100.00
32324;BME280;25666;44.350;9.222;2023-03-04T03:05:12;101650.97;;;8.67;100.00
32324;BME280;25666;44.350;9.222;2023-03-04T03:07:39;101642.31;;;8.69;100.00
32324;BME280;25666;44.350;9.222;2023-03-04T03:10:05;101634.41;;;8.62;100.00
32324;BME280;25666;44.350;9.222;2023-03-04T03:12:30;101638.78;;;8.54;100.00
32324;BME280;25666;44.350;9.222;2023-03-04T03:14:56;101627.56;;;8.59;100.00
32324;BME280;25666;44.350;9.222;2023-03-04T03:17:23;101624.53;;;8.70;100.00
32324;BME280;25666;44.350;9.222;2023-03-04T03:19:48;101622.19;;;8.63;100.00
32324;BME280;25666;44.350;9.222;2023-03-04T03:22:14;101628.56;;;8.64;100.00
32324;BME280;25666;44.350;9.222;2023-03-04T03:24:40;101620.69;;;8.57;100.00
32324;BME280;25666;44.350;9.222;2023-03-04T03:27:06;101626.88;;;8.54;100.00
32324;BME280;25666;44.350;9.222;2023-03-04T03:29:32;101635.81;;;8.73;100.00
32324;BME280;25666;44.350;9.222;2023-03-04T03:31:57;101626.63;;;8.64;100.00
32324;BME280;25666;44.350;9.222;2023-03-04T03:34:23;101633.47;;;8.44;100.00
32324;BME280;25666;44.350;9.222;2023-03-04T03:36:49;101627.69;;;8.77;100.00
32324;BME280;25666;44.350;9.222;2023-03-04T03:39:14;101621.69;;;9.14;100.00
32324;BME280;25666;44.350;9.222;2023-03-04T03:41:40;101631.25;;;8.77;100.00
32324;BME280;25666;44.350;9.222;2023-03-04T03:44:06;101636.81;;;8.77;100.00
32324;BME280;25666;44.350;9.222;2023-03-04T03:46:32;101636.16;;;8.80;100.00
32324;BME280;25666;44.350;9.222;2023-03-04T03:48:59;101637.00;;;8.81;100.00
32324;BME280;25666;44.350;9.222;2023-03-04T03:51:25;101634.41;;;8.84;100.00
32324;BME280;25666;44.350;9.222;2023-03-04T03:53:50;101637.00;;;8.81;100.00
32324;BME280;25666;44.350;9.222;2023-03-04T03:56:16;101630.69;;;8.89;100.00
32324;BME280;25666;44.350;9.222;2023-03-04T03:58:41;101632.56;;;9.02;100.00
32324;BME280;25666;44.350;9.222;2023-03-04T04:01:07;101629.47;;;9.03;100.00
32324;BME280;25666;44.350;9.222;2023-03-04T04:03:33;101630.59;;;9.02;100.00
32324;BME280;25666;44.350;9.222;2023-03-04T04:05:59;101634.53;;;9.01;100.00
32324;BME280;25666;44.350;9.222;2023-03-04T04:08:25;101641.63;;;9.16;100.00
32324;BME280;25666;44.350;9.222;2023-03-04T04:10:51;101647.13;;;9.07;100.00
32324;BME280;25666;44.350;9.222;2023-03-04T04:13:16;101651.59;;;9.17;100.00
32324;BME280;25666;44.350;9.222;2023-03-04T04:15:42;101649.91;;;9.07;100.00
32324;BME280;25666;44.350;9.222;2023-03-04T04:18:07;101651.88;;;9.07;100.00
32324;BME280;25666;44.350;9.222;2023-03-04T04:20:33;101651.38;;;9.05;100.00
32324;BME280;25666;44.350;9.222;2023-03-04T04:22:59;101648.59;;;9.05;100.00
32324;BME280;25666;44.350;9.222;2023-03-04T04:25:25;101645.81;;;9.05;100.00
32324;BME280;25666;44.350;9.222;2023-03-04T04:27:50;101650.56;;;9.04;100.00
32324;BME280;25666;44.350;9.222;2023-03-04T04:30:16;101653.09;;;8.92;100.00
32324;BME280;25666;44.350;9.222;2023-03-04T04:32:42;101652.91;;;8.89;100.00
32324;BME280;25666;44.350;9.222;2023-03-04T04:35:07;101657.25;;;8.81;100.00
32324;BME280;25666;44.350;9.222;2023-03-04T04:37:33;101662.50;;;8.60;100.00
32324;BME280;25666;44.350;9.222;2023-03-04T04:39:58;101661.72;;;8.69;100.00
32324;BME280;25666;44.350;9.222;2023-03-04T04:42:24;101662.06;;;8.67;100.00
32324;BME280;25666;44.350;9.222;2023-03-04T04:44:49;101656.00;;;8.65;100.00
32324;BME280;25666;44.350;9.222;2023-03-04T04:47:15;101665.94;;;8.44;100.00
32324;BME280;25666;44.350;9.222;2023-03-04T04:49:41;101669.34;;;8.27;100.00
32324;BME280;25666;44.350;9.222;2023-03-04T04:52:06;101679.22;;;8.33;100.00
32324;BME280;25666;44.350;9.222;2023-03-04T04:54:32;101669.69;;;8.39;100.00
32324;BME280;25666;44.350;9.222;2023-03-04T04:56:57;101669.78;;;8.34;100.00
32324;BME280;25666;44.350;9.222;2023-03-04T04:59:23;101665.06;;;8.35;100.00
32324;BME280;25666;44.350;9.222;2023-03-04T05:01:48;101664.22;;;8.21;100.00
32324;BME280;25666;44.350;9.222;2023-03-04T05:04:14;101660.34;;;8.22;100.00
32324;BME280;25666;44.350;9.222;2023-03-04T05:06:39;101658.59;;;8.12;100.00
32324;BME280;25666;44.350;9.222;2023-03-04T05:09:05;101664.16;;;8.12;100.00
32324;BME280;25666;44.350;9.222;2023-03-04T05:11:31;101659.44;;;8.13;100.00
32324;BME280;25666;44.350;9.222;2023-03-04T05:13:57;101663.44;;;8.06;100.00
32324;BME280;25666;44.350;9.222;2023-03-04T05:16:23;101656.59;;;8.04;100.00
32324;BME280;25666;44.350;9.222;2023-03-04T05:18:48;101651.25;;;8.07;100.00
32324;BME280;25666;44.350;9.222;2023-03-04T05:21:14;101652.84;;;8.08;100.00
32324;BME280;25666;44.350;9.222;2023-03-04T05:23:41;101656.97;;;8.11;100.00
32324;BME280;25666;44.350;9.222;2023-03-04T05:26:08;101654.00;;;8.07;100.00
32324;BME280;25666;44.350;9.222;2023-03-04T05:28:34;101654.84;;;7.94;100.00
32324;BME280;25666;44.350;9.222;2023-03-04T05:31:00;101652.78;;;7.86;100.00
32324;BME280;25666;44.350;9.222;2023-03-04T05:33:26;101649.41;;;7.89;100.00
32324;BME280;25666;44.350;9.222;2023-03-04T05:35:51;101650.03;;;7.86;100.00
32324;BME280;25666;44.350;9.222;2023-03-04T05:38:18;101648.19;;;7.82;100.00
32324;BME280;25666;44.350;9.222;2023-03-04T05:40:45;101641.72;;;7.86;100.00
32324;BME280;25666;44.350;9.222;2023-03-04T05:43:11;101645.22;;;7.65;100.00
32324;BME280;25666;44.350;9.222;2023-03-04T05:45:37;101651.19;;;7.72;100.00
32324;BME280;25666;44.350;9.222;2023-03-04T05:48:04;101657.63;;;7.81;100.00
32324;BME280;25666;44.350;9.222;2023-03-04T05:50:30;101651.25;;;7.80;100.00
32324;BME280;25666;44.350;9.222;2023-03-04T05:52:55;101646.94;;;7.88;100.00
32324;BME280;25666;44.350;9.222;2023-03-04T05:55:21;101660.84;;;7.61;100.00
32324;BME280;25666;44.350;9.222;2023-03-04T05:57:46;101658.97;;;7.83;100.00
32324;BME280;25666;44.350;9.222;2023-03-04T06:00:13;101665.25;;;7.89;100.00
32324;BME280;25666;44.350;9.222;2023-03-04T06:02:40;101669.00;;;7.93;100.00
32324;BME280;25666;44.350;9.222;2023-03-04T06:05:07;101666.53;;;8.05;100.00
32324;BME280;25666;44.350;9.222;2023-03-04T06:07:32;101681.00;;;8.02;100.00
32324;BME280;25666;44.350;9.222;2023-03-04T06:09:58;101676.69;;;8.23;100.00
32324;BME280;25666;44.350;9.222;2023-03-04T06:12:24;101667.81;;;8.35;100.00
32324;BME280;25666;44.350;9.222;2023-03-04T06:14:49;101658.94;;;8.46;100.00
32324;BME280;25666;44.350;9.222;2023-03-04T06:17:15;101671.94;;;8.59;100.00
32324;BME280;25666;44.350;9.222;2023-03-04T06:19:41;101672.97;;;8.64;100.00
32324;BME280;25666;44.350;9.222;2023-03-04T06:22:07;101673.47;;;8.88;100.00
32324;BME280;25666;44.350;9.222;2023-03-04T06:24:34;101677.81;;;8.80;100.00
32324;BME280;25666;44.350;9.222;2023-03-04T06:27:00;101674.72;;;9.04;100.00
32324;BME280;25666;44.350;9.222;2023-03-04T06:29:25;101675.47;;;9.57;100.00
32324;BME280;25666;44.350;9.222;2023-03-04T06:31:51;101675.72;;;9.87;100.00
32324;BME280;25666;44.350;9.222;2023-03-04T06:34:17;101677.56;;;10.00;100.00
32324;BME280;25666;44.350;9.222;2023-03-04T06:36:42;101677.47;;;10.31;100.00
32324;BME280;25666;44.350;9.222;2023-03-04T06:39:08;101678.78;;;10.25;100.00
32324;BME280;25666;44.350;9.222;2023-03-04T06:41:34;101679.59;;;10.16;100.00
32324;BME280;25666;44.350;9.222;2023-03-04T06:44:00;101685.38;;;10.54;100.00
32324;BME280;25666;44.350;9.222;2023-03-04T06:46:26;101676.88;;;10.68;100.00
32324;BME280;25666;44.350;9.222;2023-03-04T06:48:51;101682.44;;;10.68;100.00
32324;BME280;25666;44.350;9.222;2023-03-04T06:51:17;101682.56;;;10.29;100.00
32324;BME280;25666;44.350;9.222;2023-03-04T06:53:43;101686.34;;;10.33;100.00
32324;BME280;25666;44.350;9.222;2023-03-04T06:56:11;101690.91;;;10.29;100.00
32324;BME280;25666;44.350;9.222;2023-03-04T06:58:37;101686.63;;;10.14;100.00
32324;BME280;25666;44.350;9.222;2023-03-04T07:01:20;101691.00;;;9.98;100.00
32324;BME280;25666;44.350;9.222;2023-03-04T07:03:47;101691.63;;;9.95;100.00
32324;BME280;25666;44.350;9.222;2023-03-04T07:06:15;101694.41;;;9.86;100.00
32324;BME280;25666;44.350;9.222;2023-03-04T07:08:41;101692.78;;;10.02;100.00
32324;BME280;25666;44.350;9.222;2023-03-04T07:11:06;101690.50;;;10.04;100.00
32324;BME280;25666;44.350;9.222;2023-03-04T07:13:32;101689.84;;;9.99;100.00
32324;BME280;25666;44.350;9.222;2023-03-04T07:16:00;101691.34;;;10.05;100.00
32324;BME280;25666;44.350;9.222;2023-03-04T07:18:25;101689.63;;;9.87;100.00
32324;BME280;25666;44.350;9.222;2023-03-04T07:20:52;101687.66;;;9.87;100.00
32324;BME280;25666;44.350;9.222;2023-03-04T07:23:17;101689.69;;;9.95;100.00
32324;BME280;25666;44.350;9.222;2023-03-04T07:25:44;101692.28;;;9.92;100.00
32324;BME280;25666;44.350;9.222;2023-03-04T07:28:09;101694.69;;;9.85;100.00
32324;BME280;25666;44.350;9.222;2023-03-04T07:30:35;101691.25;;;9.79;100.00
32324;BME280;25666;44.350;9.222;2023-03-04T07:33:00;101695.34;;;9.82;100.00
32324;BME280;25666;44.350;9.222;2023-03-04T07:35:26;101696.00;;;9.87;100.00
32324;BME280;25666;44.350;9.222;2023-03-04T07:37:51;101696.06;;;9.96;100.00
32324;BME280;25666;44.350;9.222;2023-03-04T07:40:17;101703.41;;;10.00;100.00
32324;BME280;25666;44.350;9.222;2023-03-04T07:42:42;101695.66;;;10.19;100.00
32324;BME280;25666;44.350;9.222;2023-03-04T07:45:13;101697.47;;;10.24;100.00
32324;BME280;25666;44.350;9.222;2023-03-04T07:47:38;101699.09;;;10.25;100.00
32324;BME280;25666;44.350;9.222;2023-03-04T07:50:06;101700.75;;;10.43;100.00
32324;BME280;25666;44.350;9.222;2023-03-04T07:52:31;101702.56;;;10.56;100.00
32324;BME280;25666;44.350;9.222;2023-03-04T07:54:57;101699.13;;;10.59;100.00
32324;BME280;25666;44.350;9.222;2023-03-04T07:57:22;101688.81;;;10.60;100.00
32324;BME280;25666;44.350;9.222;2023-03-04T07:59:48;101690.63;;;10.64;100.00
32324;BME280;25666;44.350;9.222;2023-03-04T08:02:13;101692.25;;;10.74;100.00
32324;BME280;25666;44.350;9.222;2023-03-04T08:04:40;101696.16;;;10.82;100.00
32324;BME280;25666;44.350;9.222;2023-03-04T08:07:05;101690.09;;;10.88;100.00
32324;BME280;25666;44.350;9.222;2023-03-04T08:09:30;101690.88;;;11.06;100.00
32324;BME280;25666;44.350;9.222;2023-03-04T08:11:56;101692.66;;;11.19;100.00
32324;BME280;25666;44.350;9.222;2023-03-04T08:14:21;101694.78;;;11.22;100.00
32324;BME280;25666;44.350;9.222;2023-03-04T08:16:47;101688.03;;;11.32;100.00
32324;BME280;25666;44.350;9.222;2023-03-04T08:19:12;101700.13;;;11.44;100.00
32324;BME280;25666;44.350;9.222;2023-03-04T08:21:38;101680.06;;;11.59;100.00
32324;BME280;25666;44.350;9.222;2023-03-04T08:24:04;101691.19;;;11.68;100.00
32324;BME280;25666;44.350;9.222;2023-03-04T08:26:35;101686.13;;;11.70;100.00
32324;BME280;25666;44.350;9.222;2023-03-04T08:29:03;101677.88;;;11.82;100.00
32324;BME280;25666;44.350;9.222;2023-03-04T08:31:29;101679.22;;;12.05;100.00
32324;BME280;25666;44.350;9.222;2023-03-04T08:33:55;101673.81;;;12.00;100.00
32324;BME280;25666;44.350;9.222;2023-03-04T08:36:20;101680.66;;;12.11;100.00
32324;BME280;25666;44.350;9.222;2023-03-04T08:38:46;101671.91;;;12.42;100.00
32324;BME280;25666;44.350;9.222;2023-03-04T08:41:12;101673.59;;;12.55;100.00
32324;BME280;25666;44.350;9.222;2023-03-04T08:43:38;101673.38;;;12.60;100.00
32324;BME280;25666;44.350;9.222;2023-03-04T08:46:04;101666.72;;;12.73;100.00
32324;BME280;25666;44.350;9.222;2023-03-04T08:48:30;101664.88;;;12.77;100.00
32324;BME280;25666;44.350;9.222;2023-03-04T08:50:55;101670.50;;;12.89;100.00
32324;BME280;25666;44.350;9.222;2023-03-04T08:53:21;101667.72;;;12.89;100.00
32324;BME280;25666;44.350;9.222;2023-03-04T08:55:47;101659.66;;;12.88;100.00
32324;BME280;25666;44.350;9.222;2023-03-04T08:58:13;101654.88;;;12.88;100.00
32324;BME280;25666;44.350;9.222;2023-03-04T09:00:42;101651.53;;;12.95;100.00
32324;BME280;25666;44.350;9.222;2023-03-04T09:03:10;101656.78;;;12.97;100.00
32324;BME280;25666;44.350;9.222;2023-03-04T09:05:36;101655.94;;;12.84;100.00
32324;BME280;25666;44.350;9.222;2023-03-04T09:08:01;101658.16;;;12.90;100.00
32324;BME280;25666;44.350;9.222;2023-03-04T09:10:27;101658.63;;;12.93;100.00
32324;BME280;25666;44.350;9.222;2023-03-04T09:12:53;101644.53;;;12.89;100.00
32324;BME280;25666;44.350;9.222;2023-03-04T09:15:18;101648.56;;;12.79;100.00
32324;BME280;25666;44.350;9.222;2023-03-04T09:17:44;101650.59;;;12.91;100.00
32324;BME280;25666;44.350;9.222;2023-03-04T09:20:10;101654.09;;;13.00;100.00
32324;BME280;25666;44.350;9.222;2023-03-04T09:22:37;101647.09;;;12.94;100.00
32324;BME280;25666;44.350;9.222;2023-03-04T09:25:03;101651.41;;;12.92;100.00
32324;BME280;25666;44.350;9.222;2023-03-04T09:27:29;101654.34;;;12.95;100.00
32324;BME280;25666;44.350;9.222;2023-03-04T09:29:55;101654.47;;;12.99;100.00
32324;BME280;25666;44.350;9.222;2023-03-04T09:32:20;101651.09;;;13.05;100.00
32324;BME280;25666;44.350;9.222;2023-03-04T09:34:46;101650.91;;;13.10;100.00
32324;BME280;25666;44.350;9.222;2023-03-04T09:37:11;101652.72;;;13.06;100.00
32324;BME280;25666;44.350;9.222;2023-03-04T09:39:37;101658.53;;;13.01;100.00
32324;BME280;25666;44.350;9.222;2023-03-04T09:42:03;101651.09;;;13.05;100.00
32324;BME280;25666;44.350;9.222;2023-03-04T09:44:37;101651.31;;;13.00;100.00
32324;BME280;25666;44.350;9.222;2023-03-04T09:47:13;101648.19;;;13.02;100.00
32324;BME280;25666;44.350;9.222;2023-03-04T09:49:42;101651.56;;;13.07;100.00
32324;BME280;25666;44.350;9.222;2023-03-04T09:52:36;101645.97;;;13.07;100.00
32324;BME280;25666;44.350;9.222;2023-03-04T09:55:20;101646.03;;;13.19;100.00
32324;BME280;25666;44.350;9.222;2023-03-04T09:58:06;101641.97;;;13.17;100.00
32324;BME280;25666;44.350;9.222;2023-03-04T10:00:42;101643.16;;;13.28;100.00
32324;BME280;25666;44.350;9.222;2023-03-04T10:06:00;101634.56;;;13.45;100.00
32324;BME280;25666;44.350;9.222;2023-03-04T10:08:40;101637.22;;;13.54;100.00
32324;BME280;25666;44.350;9.222;2023-03-04T10:11:31;101640.50;;;13.56;100.00
32324;BME280;25666;44.350;9.222;2023-03-04T10:16:48;101634.31;;;13.38;100.00
32324;BME280;25666;44.350;9.222;2023-03-04T10:21:50;101633.03;;;13.35;100.00
32324;BME280;25666;44.350;9.222;2023-03-04T10:24:19;101633.84;;;13.36;100.00
32324;BME280;25666;44.350;9.222;2023-03-04T10:26:55;101637.09;;;13.38;100.00
32324;BME280;25666;44.350;9.222;2023-03-04T10:29:23;101634.91;;;13.44;100.00
32324;BME280;25666;44.350;9.222;2023-03-04T10:31:49;101627.44;;;13.48;100.00
32324;BME280;25666;44.350;9.222;2023-03-04T10:34:16;101622.78;;;13.64;100.00
32324;BME280;25666;44.350;9.222;2023-03-04T10:41:45;101613.13;;;13.73;100.00
32324;BME280;25666;44.350;9.222;2023-03-04T10:44:17;101621.16;;;13.75;100.00
32324;BME280;25666;44.350;9.222;2023-03-04T10:46:48;101615.66;;;13.78;100.00
32324;BME280;25666;44.350;9.222;2023-03-04T10:49:16;101606.22;;;13.83;100.00
32324;BME280;25666;44.350;9.222;2023-03-04T10:51:54;101601.69;;;13.90;100.00
32324;BME280;25666;44.350;9.222;2023-03-04T10:57:02;101598.97;;;13.94;100.00
32324;BME280;25666;44.350;9.222;2023-03-04T10:59:41;101601.44;;;13.95;100.00
32324;BME280;25666;44.350;9.222;2023-03-04T11:04:56;101594.97;;;14.07;100.00
32324;BME280;25666;44.350;9.222;2023-03-04T11:07:23;101597.66;;;14.04;100.00
32324;BME280;25666;44.350;9.222;2023-03-04T11:09:50;101595.34;;;14.06;100.00
32324;BME280;25666;44.350;9.222;2023-03-04T11:12:19;101592.28;;;14.11;100.00
32324;BME280;25666;44.350;9.222;2023-03-04T11:14:50;101592.28;;;14.11;100.00
32324;BME280;25666;44.350;9.222;2023-03-04T11:17:28;101584.06;;;14.30;100.00
32324;BME280;25666;44.350;9.222;2023-03-04T11:20:25;101587.13;;;14.37;100.00
32324;BME280;25666;44.350;9.222;2023-03-04T11:22:54;101578.00;;;14.40;100.00
32324;BME280;25666;44.350;9.222;2023-03-04T11:25:32;101573.22;;;14.40;100.00
32324;BME280;25666;44.350;9.222;2023-03-04T11:28:19;101576.94;;;14.44;100.00
32324;BME280;25666;44.350;9.222;2023-03-04T11:30:58;101566.59;;;14.33;100.00
32324;BME280;25666;44.350;9.222;2023-03-04T11:33:30;101573.31;;;14.44;100.00
32324;BME280;25666;44.350;9.222;2023-03-04T11:39:34;101561.25;;;14.56;100.00
32324;BME280;25666;44.350;9.222;2023-03-04T11:42:05;101555.84;;;14.63;95.62
32324;BME280;25666;44.350;9.222;2023-03-04T11:44:32;101554.75;;;14.67;91.33
32324;BME280;25666;44.350;9.222;2023-03-04T11:47:51;101549.06;;;14.64;91.77
32324;BME280;25666;44.350;9.222;2023-03-04T11:53:06;101535.38;;;14.90;76.37
32324;BME280;25666;44.350;9.222;2023-03-04T11:55:44;101532.03;;;15.00;67.23
32324;BME280;25666;44.350;9.222;2023-03-04T12:04:08;101521.53;;;14.97;63.20
32324;BME280;25666;44.350;9.222;2023-03-04T12:15:18;101513.19;;;15.16;59.70
32324;BME280;25666;44.350;9.222;2023-03-04T12:18:08;101507.78;;;15.23;60.70
32324;BME280;25666;44.350;9.222;2023-03-04T12:26:24;101499.00;;;15.25;69.92
32324;BME280;25666;44.350;9.222;2023-03-04T12:31:31;101483.88;;;15.29;70.65
32324;BME280;25666;44.350;9.222;2023-03-04T12:34:18;101481.53;;;15.31;69.80
32324;BME280;25666;44.350;9.222;2023-03-04T12:37:15;101475.72;;;15.56;66.77
32324;BME280;25666;44.350;9.222;2023-03-04T12:39:55;101465.84;;;15.46;64.86
32324;BME280;25666;44.350;9.222;2023-03-04T12:45:53;101453.72;;;15.42;65.64
32324;BME280;25666;44.350;9.222;2023-03-04T12:48:29;101450.38;;;15.52;62.79
32324;BME280;25666;44.350;9.222;2023-03-04T12:54:43;101441.75;;;15.45;57.93
32324;BME280;25666;44.350;9.222;2023-03-04T12:56:49;101431.91;;;15.51;57.43
32324;BME280;25666;44.350;9.222;2023-03-04T12:59:19;101435.53;;;15.51;58.30
32324;BME280;25666;44.350;9.222;2023-03-04T13:04:56;101422.34;;;15.71;66.05
32324;BME280;25666;44.350;9.222;2023-03-04T13:10:17;101427.41;;;16.04;64.10
32324;BME280;25666;44.350;9.222;2023-03-04T13:12:48;101421.88;;;16.07;65.19
32324;BME280;25666;44.350;9.222;2023-03-04T13:15:25;101424.19;;;15.83;84.26
32324;BME280;25666;44.350;9.222;2023-03-04T13:18:33;101423.28;;;15.79;82.01
32324;BME280;25666;44.350;9.222;2023-03-04T13:21:27;101432.97;;;15.62;84.58
32324;BME280;25666;44.350;9.222;2023-03-04T13:23:53;101426.38;;;15.54;96.35
32324;BME280;25666;44.350;9.222;2023-03-04T13:34:49;101421.06;;;15.49;100.00
32324;BME280;25666;44.350;9.222;2023-03-04T13:42:45;101414.25;;;15.16;100.00
32324;BME280;25666;44.350;9.222;2023-03-04T13:45:31;101412.19;;;15.13;100.00
32324;BME280;25666;44.350;9.222;2023-03-04T13:47:57;101406.13;;;14.95;100.00
32324;BME280;25666;44.350;9.222;2023-03-04T13:52:49;101420.44;;;14.90;100.00
32324;BME280;25666;44.350;9.222;2023-03-04T13:55:34;101414.75;;;14.71;100.00
32324;BME280;25666;44.350;9.222;2023-03-04T13:58:12;101415.09;;;14.69;100.00
32324;BME280;25666;44.350;9.222;2023-03-04T14:00:46;101418.28;;;14.68;100.00
32324;BME280;25666;44.350;9.222;2023-03-04T14:03:13;101417.56;;;14.71;100.00
32324;BME280;25666;44.350;9.222;2023-03-04T14:05:43;101404.28;;;14.68;100.00
32324;BME280;25666;44.350;9.222;2023-03-04T14:08:19;101408.63;;;14.65;100.00
32324;BME280;25666;44.350;9.222;2023-03-04T14:10:53;101404.19;;;14.64;100.00
32324;BME280;25666;44.350;9.222;2023-03-04T14:13:21;101410.16;;;14.63;100.00